Galesburg, IL

2:40 AM CDT on September 22, 2017 (GMT -0500)
Galesburg Municipal

Weather History for KGBG - October, 2014

Change the Weather History Date:

Wednesday, October 29, 2014

  Actual Average Record
Temperature  
Mean Temperature 42 °F -  
Max Temperature 51 °F 58 °F 79 °F (1950)
Min Temperature 32 °F 38 °F 18 °F (1952)
Degree Days  
Heating Degree Days 24    
Moisture  
Dew Point 33 °F    
Average Humidity 73    
Maximum Humidity 98    
Minimum Humidity 51    
Precipitation  
Precipitation 0.00 in - - ()
Sea Level Pressure  
Sea Level Pressure 30.12 in    
Wind  
Wind Speed 9 mph (West)    
Max Wind Speed 17 mph    
Max Gust Speed 26 mph    
Visibility 10 miles    
Events      
Averages and records for this station are not official NWS values.
T = Trace of Precipitation, MM = Missing Value Source: NWS Daily Summary

Daily Weather History Graph

Daily Weather History Graph

Search for Another Location

Airport or City:

Trip Planner

Search our weather history database for the weather conditions in past years. The results will help you decide how hot, cold, wet, or windy it might be!

Date:

Astronomy

Oct. 29, 2014 Rise Set
Actual Time 7:28 AM CDT 6:01 PM CDT
Civil Twilight 7:00 AM CDT 6:29 PM CDT
Nautical Twilight 6:28 AM CDT 7:01 PM CDT
Astronomical Twilight 5:56 AM CDT 7:33 PM CDT
Moon 12:48 PM CDT (10/29) 11:10 PM CDT (10/29)
Length of Visible Light 11h 29m
Length of Day
10h 32m
Waxing Crescent, 34% of the Moon is Illuminated
Oct 29
Waxing Crescent
Oct 30
First Quarter
Nov 6
Full
Nov 14
Last Quarter
Nov 22
New

Hourly Weather History & Observations

Time (CDT) Temp. Windchill Dew Point Humidity Pressure Visibility Wind Dir Wind Speed Gust Speed Precip Events Conditions
12:15 AM 41.9 °F 36.3 °F 34.2 °F 74% 30.05 in 10.0 mi West 9.2 mph - N/A   Clear
12:35 AM 40.3 °F 34.4 °F 34.0 °F 78% 30.05 in 10.0 mi West 9.2 mph - N/A   Clear
12:55 AM 40.8 °F 35.6 °F 34.0 °F 77% 30.05 in 10.0 mi West 8.1 mph - N/A   Clear
1:15 AM 40.1 °F 34.7 °F 33.8 °F 78% 30.05 in 10.0 mi West 8.1 mph - N/A   Clear
1:35 AM 40.5 °F 35.1 °F 33.8 °F 77% 30.05 in 10.0 mi WSW 8.1 mph - N/A   Clear
1:55 AM 41.0 °F 35.8 °F 33.8 °F 76% 30.05 in 10.0 mi WSW 8.1 mph - N/A   Clear
2:15 AM 40.3 °F 34.9 °F 33.8 °F 78% 30.06 in 10.0 mi WSW 8.1 mph - N/A   Clear
2:35 AM 40.5 °F 34.6 °F 33.8 °F 77% 30.06 in 10.0 mi WSW 9.2 mph - N/A   Clear
2:55 AM 40.3 °F 34.4 °F 33.6 °F 77% 30.07 in 10.0 mi WSW 9.2 mph - N/A   Clear
3:15 AM 40.1 °F 34.1 °F 33.4 °F 77% 30.07 in 10.0 mi West 9.2 mph - N/A   Clear
3:35 AM 39.6 °F 33.5 °F 33.3 °F 78% 30.07 in 10.0 mi WSW 9.2 mph - N/A   Clear
3:55 AM 39.6 °F 34.0 °F 33.3 °F 78% 30.06 in 10.0 mi WSW 8.1 mph - N/A   Clear
4:15 AM 39.6 °F 34.0 °F 33.3 °F 78% 30.07 in 10.0 mi WSW 8.1 mph - N/A   Scattered Clouds
4:35 AM 39.4 °F 32.7 °F 33.3 °F 79% 30.07 in 10.0 mi West 10.4 mph 17.3 mph N/A   Scattered Clouds
4:55 AM 38.3 °F 31.4 °F 33.1 °F 81% 30.08 in 10.0 mi West 10.4 mph - N/A   Clear
5:15 AM 38.3 °F 31.9 °F 32.9 °F 81% 30.08 in 10.0 mi West 9.2 mph - N/A   Clear
5:35 AM 38.3 °F 31.9 °F 32.9 °F 81% 30.09 in 10.0 mi West 9.2 mph - N/A   Scattered Clouds
5:55 AM 40.1 °F 33.6 °F 34.2 °F 79% 30.09 in 10.0 mi WNW 10.4 mph - N/A   Mostly Cloudy
6:15 AM 40.1 °F 34.7 °F 33.8 °F 78% 30.09 in 10.0 mi West 8.1 mph - N/A   Mostly Cloudy
6:35 AM 38.8 °F 33.2 °F 32.9 °F 79% 30.09 in 10.0 mi West 8.1 mph - N/A   Scattered Clouds
6:55 AM 37.8 °F 31.8 °F 32.9 °F 83% 30.10 in 10.0 mi West 8.1 mph - N/A   Clear
7:15 AM 38.5 °F 32.7 °F 32.9 °F 80% 30.10 in 10.0 mi West 8.1 mph - N/A   Clear
7:35 AM 38.3 °F 31.9 °F 32.9 °F 81% 30.10 in 10.0 mi West 9.2 mph - N/A   Clear
7:55 AM 38.7 °F 32.9 °F 33.1 °F 80% 30.11 in 10.0 mi West 8.1 mph - N/A   Clear
8:15 AM 39.4 °F 33.2 °F 33.8 °F 80% 30.12 in 10.0 mi West 9.2 mph - N/A   Clear
8:35 AM 40.8 °F 34.5 °F 34.7 °F 79% 30.13 in 10.0 mi West 10.4 mph - N/A   Clear
8:55 AM 42.1 °F 35.7 °F 34.7 °F 75% 30.13 in 10.0 mi West 11.5 mph - N/A   Clear
9:15 AM 43.2 °F 36.2 °F 34.9 °F 73% 30.14 in 10.0 mi WNW 13.8 mph 17.3 mph N/A   Clear
9:35 AM 43.9 °F 37.5 °F 34.3 °F 69% 30.14 in 10.0 mi WNW 12.7 mph 20.7 mph N/A   Clear
9:55 AM 44.4 °F 37.9 °F 33.6 °F 66% 30.15 in 10.0 mi WNW 13.8 mph 26.5 mph N/A   Scattered Clouds
10:15 AM 44.6 °F 37.2 °F 33.6 °F 65% 30.15 in 10.0 mi WNW 17.3 mph - N/A   Mostly Cloudy
10:35 AM 44.8 °F 37.7 °F 33.4 °F 64% 30.15 in 10.0 mi WNW 16.1 mph 23.0 mph N/A   Overcast
10:55 AM 45.7 °F 38.8 °F 33.8 °F 63% 30.16 in 10.0 mi WNW 16.1 mph 19.6 mph N/A   Mostly Cloudy
11:15 AM 46.4 °F 40.4 °F 33.3 °F 60% 30.16 in 10.0 mi NW 13.8 mph 18.4 mph N/A   Scattered Clouds
11:35 AM 46.4 °F 40.4 °F 33.1 °F 60% 30.16 in 10.0 mi NW 13.8 mph - N/A   Mostly Cloudy
11:55 AM 46.6 °F - 33.6 °F 61% 30.16 in 10.0 mi WNW 12.7 mph 19.6 mph N/A   Overcast
12:15 PM 47.3 °F - 33.6 °F 59% 30.16 in 10.0 mi WNW 12.7 mph 18.4 mph N/A   Overcast
12:35 PM 46.8 °F - 32.7 °F 58% 30.16 in 10.0 mi NW 11.5 mph 18.4 mph N/A   Overcast
12:55 PM 47.5 °F - 33.1 °F 57% 30.16 in 10.0 mi WNW 13.8 mph - N/A   Overcast
1:15 PM 47.8 °F - 32.9 °F 56% 30.15 in 10.0 mi WNW 13.8 mph 20.7 mph N/A   Overcast
1:35 PM 48.2 °F - 33.6 °F 57% 30.15 in 10.0 mi WNW 12.7 mph 21.9 mph N/A   Overcast
1:55 PM 48.6 °F - 33.3 °F 56% 30.15 in 10.0 mi WNW 11.5 mph - N/A   Overcast
2:15 PM 49.3 °F - 33.6 °F 55% 30.15 in 10.0 mi WNW 12.7 mph 18.4 mph N/A   Overcast
2:35 PM 50.9 °F - 33.8 °F 52% 30.14 in 10.0 mi West 16.1 mph 25.3 mph N/A   Overcast
2:55 PM 51.1 °F - 33.4 °F 51% 30.14 in 10.0 mi NW 10.4 mph - N/A   Mostly Cloudy
3:15 PM 50.9 °F - 33.1 °F 51% 30.13 in 10.0 mi WNW 15.0 mph 19.6 mph N/A   Scattered Clouds
3:35 PM 50.2 °F - 33.3 °F 52% 30.13 in 10.0 mi NW 9.2 mph - N/A   Clear
3:55 PM 50.4 °F - 33.3 °F 52% 30.14 in 10.0 mi NW 9.2 mph 18.4 mph N/A   Clear
4:15 PM 50.4 °F - 33.1 °F 52% 30.14 in 10.0 mi WNW 11.5 mph 17.3 mph N/A   Clear
4:35 PM 50.2 °F - 32.9 °F 52% 30.14 in 10.0 mi WNW 12.7 mph - N/A   Clear
4:55 PM 50.0 °F - 32.9 °F 52% 30.13 in 10.0 mi NW 6.9 mph - N/A   Clear
5:15 PM 49.1 °F - 32.9 °F 54% 30.14 in 10.0 mi West 9.2 mph - N/A   Clear
5:35 PM 47.7 °F - 34.0 °F 59% 30.14 in 10.0 mi West 8.1 mph - N/A   Clear
5:55 PM 45.3 °F 42.3 °F 33.8 °F 64% 30.14 in 10.0 mi West 5.8 mph - N/A   Clear
6:15 PM 43.3 °F 40.7 °F 32.9 °F 67% 30.14 in 10.0 mi West 4.6 mph - N/A   Clear
6:35 PM 43.3 °F 41.7 °F 32.9 °F 67% 30.15 in 10.0 mi WSW 3.5 mph - N/A   Clear
6:55 PM 42.8 °F - 32.5 °F 67% 30.15 in 10.0 mi Calm Calm - N/A   Clear
7:15 PM 40.8 °F - 34.7 °F 79% 30.15 in 10.0 mi Calm Calm - N/A   Clear
7:35 PM 38.8 °F - 34.7 °F 85% 30.15 in 10.0 mi Calm Calm - N/A   Clear
7:55 PM 37.4 °F - 33.8 °F 87% 30.15 in 10.0 mi Calm Calm - N/A   Clear
8:15 PM 35.4 °F - 33.3 °F 92% 30.15 in 10.0 mi Calm Calm - N/A   Clear
8:35 PM 35.2 °F - 32.5 °F 90% 30.15 in 7.0 mi Calm Calm - N/A   Clear
8:55 PM 34.5 °F - 32.7 °F 93% 30.15 in 10.0 mi Calm Calm - N/A   Clear
9:15 PM 34.2 °F - 32.5 °F 94% 30.14 in 7.0 mi Calm Calm - N/A   Clear
9:35 PM 32.7 °F - 32.0 °F 97% 30.15 in 7.0 mi Calm Calm - N/A   Clear
9:55 PM 32.7 °F - 32.0 °F 97% 30.15 in 7.0 mi Calm Calm - N/A   Clear
10:15 PM 33.8 °F - 32.4 °F 94% 30.15 in 7.0 mi Calm Calm - N/A   Clear
10:35 PM 32.9 °F - 32.0 °F 96% 30.15 in 7.0 mi Calm Calm - N/A   Clear
10:55 PM 32.5 °F - 31.8 °F 97% 30.15 in 10.0 mi Calm Calm - N/A   Clear
11:15 PM 32.2 °F - 31.6 °F 98% 30.15 in 7.0 mi Calm Calm - N/A   Clear
11:35 PM 32.7 °F - 32.0 °F 97% 30.15 in 7.0 mi Calm Calm - N/A   Clear
11:55 PM 32.0 °F - 31.3 °F 97% 30.14 in 5.0 mi Calm Calm - N/A   Clear